KPAE

Snohomish County (Paine Field) Airport

Everett, Washington, USA
KPAE 172005Z 1720/1818 12009G15KT P6SM OVC060 FM180300 16014G24KT P6SM -RA BKN040 OVC070 FM181200 16014G24KT P6SM BKN022 OVC035
Issued Valid From Valid To
Jan-17 @ 20:05 UTC
(3 hours ago)
Jan-17 @ 20:00 UTC
(3 hours ago)
Jan-18 @ 18:00 UTC
(in 19 hours)
Jan-17 @ 20:00 to Jan-18 @ 03:00
KPAE 172005Z 1720/1818 12009G15KT P6SM OVC060
Wind Visibility Clouds
120° at 9 knots
 Gusting to 15 knots
Greater than 6 miles
  • Overcast at 6,000' AGL
From Jan-18 @ 03:00 to Jan-18 @ 12:00
FM180300 16014G24KT P6SM -RA BKN040 OVC070
Wind Visibility Clouds Conditions
160° at 14 knots
 Gusting to 24 knots
Greater than 6 miles
  • Broken at 4,000' AGL
  • Overcast at 7,000' AGL
  • Light Rain
From Jan-18 @ 12:00 to Jan-18 @ 18:00
FM181200 16014G24KT P6SM BKN022 OVC035
Wind Visibility Clouds
160° at 14 knots
 Gusting to 24 knots
Greater than 6 miles
  • Broken at 2,200' AGL
  • Overcast at 3,500' AGL
KPAE 172005Z 1720/1818 12009G15KT P6SM OVC060 FM180300 16014G24KT P6SM -RA BKN040 OVC070 FM181200 16014G24KT P6SM BKN022 OVC035
Issued Jan-17 @ 20:05 UTC
(3 hours ago)
Valid From Jan-17 @ 20:00 UTC
(3 hours ago)
Valid To Jan-18 @ 18:00 UTC
(in 19 hours)
Jan-17 @ 20:00 - Jan-18 @ 03:00
Wind Visibility
120° at 9 knots
 Gusting to 15 knots
Greater than 6 miles
Clouds
  • Overcast at 6,000' AGL
From Jan-18 @ 03:00 - Jan-18 @ 12:00
Wind Visibility
160° at 14 knots
 Gusting to 24 knots
Greater than 6 miles
Clouds
  • Broken at 4,000' AGL
  • Overcast at 7,000' AGL
Conditions
  • Light Rain
From Jan-18 @ 12:00 - Jan-18 @ 18:00
Wind Visibility
160° at 14 knots
 Gusting to 24 knots
Greater than 6 miles
Clouds
  • Broken at 2,200' AGL
  • Overcast at 3,500' AGL